sensor_id;sensor_type;location;lat;lon;timestamp;pressure;altitude;pressure_sealevel;temperature;humidity
38253;BME280;24785;52.372;20.672;2023-05-22T00:04:00;101219.75;;;7.79;100.00
38253;BME280;24785;52.372;20.672;2023-05-22T00:14:02;101219.44;;;7.64;100.00
38253;BME280;24785;52.372;20.672;2023-05-22T00:24:03;101200.09;;;7.45;100.00
38253;BME280;24785;52.372;20.672;2023-05-22T00:34:04;101195.34;;;7.36;100.00
38253;BME280;24785;52.372;20.672;2023-05-22T00:44:05;101189.09;;;7.30;100.00
38253;BME280;24785;52.372;20.672;2023-05-22T00:54:06;101182.84;;;7.24;100.00
38253;BME280;24785;52.372;20.672;2023-05-22T01:04:11;101191.41;;;7.15;100.00
38253;BME280;24785;52.372;20.672;2023-05-22T01:14:35;101190.34;;;7.04;100.00
38253;BME280;24785;52.372;20.672;2023-05-22T01:24:48;101192.53;;;6.84;100.00
38253;BME280;24785;52.372;20.672;2023-05-22T01:34:55;101196.72;;;6.80;100.00
38253;BME280;24785;52.372;20.672;2023-05-22T01:44:58;101193.53;;;6.59;100.00
38253;BME280;24785;52.372;20.672;2023-05-22T01:55:05;101195.56;;;6.46;100.00
38253;BME280;24785;52.372;20.672;2023-05-22T02:05:10;101199.25;;;6.33;100.00
38253;BME280;24785;52.372;20.672;2023-05-22T02:15:12;101191.97;;;6.10;100.00
38253;BME280;24785;52.372;20.672;2023-05-22T02:25:15;101190.28;;;5.97;100.00
38253;BME280;24785;52.372;20.672;2023-05-22T02:35:16;101181.88;;;6.00;100.00
38253;BME280;24785;52.372;20.672;2023-05-22T02:45:17;101174.97;;;6.11;100.00
38253;BME280;24785;52.372;20.672;2023-05-22T02:55:18;101170.09;;;6.08;100.00
38253;BME280;24785;52.372;20.672;2023-05-22T03:05:19;101176.56;;;6.30;100.00
38253;BME280;24785;52.372;20.672;2023-05-22T03:15:20;101178.19;;;6.85;100.00
38253;BME280;24785;52.372;20.672;2023-05-22T03:25:21;101200.22;;;7.90;100.00
38253;BME280;24785;52.372;20.672;2023-05-22T03:35:22;101199.47;;;9.69;100.00
38253;BME280;24785;52.372;20.672;2023-05-22T03:45:24;101202.28;;;12.29;100.00
38253;BME280;24785;52.372;20.672;2023-05-22T03:55:25;101187.31;;;14.83;84.77
38253;BME280;24785;52.372;20.672;2023-05-22T04:05:26;101191.72;;;16.22;74.27
38253;BME280;24785;52.372;20.672;2023-05-22T04:15:26;101176.84;;;16.00;74.15
38253;BME280;24785;52.372;20.672;2023-05-22T04:25:27;101166.19;;;16.28;72.96
38253;BME280;24785;52.372;20.672;2023-05-22T04:35:30;101172.97;;;16.95;72.19
38253;BME280;24785;52.372;20.672;2023-05-22T04:45:31;101162.19;;;17.23;68.85
38253;BME280;24785;52.372;20.672;2023-05-22T04:55:32;101174.66;;;16.40;70.93
38253;BME280;24785;52.372;20.672;2023-05-22T05:05:36;101172.16;;;16.62;72.81
38253;BME280;24785;52.372;20.672;2023-05-22T05:15:37;101170.53;;;17.26;70.33
38253;BME280;24785;52.372;20.672;2023-05-22T05:25:38;101172.56;;;16.18;68.92
38253;BME280;24785;52.372;20.672;2023-05-22T05:35:40;101175.47;;;16.41;69.94
38253;BME280;24785;52.372;20.672;2023-05-22T05:45:41;101174.38;;;16.04;73.54
38253;BME280;24785;52.372;20.672;2023-05-22T05:55:43;101169.41;;;16.67;71.12
38253;BME280;24785;52.372;20.672;2023-05-22T06:05:44;101165.22;;;16.75;70.07
38253;BME280;24785;52.372;20.672;2023-05-22T06:15:48;101157.19;;;17.30;67.69
38253;BME280;24785;52.372;20.672;2023-05-22T06:25:49;101148.69;;;18.36;58.15
38253;BME280;24785;52.372;20.672;2023-05-22T06:35:49;101132.38;;;18.72;57.83
38253;BME280;24785;52.372;20.672;2023-05-22T06:45:50;101113.75;;;18.88;54.80
38253;BME280;24785;52.372;20.672;2023-05-22T06:55:51;101119.53;;;19.35;55.32
38253;BME280;24785;52.372;20.672;2023-05-22T07:05:54;101118.41;;;19.27;55.51
38253;BME280;24785;52.372;20.672;2023-05-22T07:15:56;101114.09;;;19.92;54.94
38253;BME280;24785;52.372;20.672;2023-05-22T07:25:56;101105.47;;;20.41;47.97
38253;BME280;24785;52.372;20.672;2023-05-22T07:35:57;101104.50;;;20.37;48.62
38253;BME280;24785;52.372;20.672;2023-05-22T07:45:58;101099.38;;;20.36;47.54
38253;BME280;24785;52.372;20.672;2023-05-22T07:55:59;101090.88;;;20.55;47.55
38253;BME280;24785;52.372;20.672;2023-05-22T08:06:00;101078.56;;;20.49;46.88
38253;BME280;24785;52.372;20.672;2023-05-22T08:16:01;101071.81;;;20.55;46.54
38253;BME280;24785;52.372;20.672;2023-05-22T08:26:02;101079.56;;;21.29;48.66
38253;BME280;24785;52.372;20.672;2023-05-22T08:36:03;101062.09;;;21.51;43.21
38253;BME280;24785;52.372;20.672;2023-05-22T08:46:04;101066.41;;;21.22;43.41
38253;BME280;24785;52.372;20.672;2023-05-22T08:56:06;101056.72;;;21.04;43.18
38253;BME280;24785;52.372;20.672;2023-05-22T09:06:08;101035.97;;;20.91;40.52
38253;BME280;24785;52.372;20.672;2023-05-22T09:16:12;101021.72;;;21.44;39.85
38253;BME280;24785;52.372;20.672;2023-05-22T09:26:13;101014.47;;;23.05;40.60
38253;BME280;24785;52.372;20.672;2023-05-22T09:36:14;101005.75;;;22.54;36.54
38253;BME280;24785;52.372;20.672;2023-05-22T09:46:15;101011.03;;;23.20;38.66
38253;BME280;24785;52.372;20.672;2023-05-22T09:56:17;101004.56;;;22.88;38.95
38253;BME280;24785;52.372;20.672;2023-05-22T10:06:20;101001.13;;;23.03;37.83
38253;BME280;24785;52.372;20.672;2023-05-22T10:16:22;100991.44;;;22.69;35.27
38253;BME280;24785;52.372;20.672;2023-05-22T10:26:25;100992.91;;;23.15;36.98
38253;BME280;24785;52.372;20.672;2023-05-22T10:36:42;100985.44;;;24.08;36.90
38253;BME280;24785;52.372;20.672;2023-05-22T10:46:50;100985.06;;;23.94;36.68
38253;BME280;24785;52.372;20.672;2023-05-22T10:57:08;100966.38;;;23.16;36.72
38253;BME280;24785;52.372;20.672;2023-05-22T11:07:09;100961.50;;;23.21;39.25
38253;BME280;24785;52.372;20.672;2023-05-22T11:17:12;100942.56;;;23.29;34.85
38253;BME280;24785;52.372;20.672;2023-05-22T11:27:19;100940.22;;;22.78;36.18
38253;BME280;24785;52.372;20.672;2023-05-22T11:37:19;100936.91;;;22.24;39.13
38253;BME280;24785;52.372;20.672;2023-05-22T11:47:21;100947.19;;;22.88;41.95
38253;BME280;24785;52.372;20.672;2023-05-22T11:57:22;100930.47;;;23.70;38.46
38253;BME280;24785;52.372;20.672;2023-05-22T12:07:24;100911.00;;;25.01;34.03
38253;BME280;24785;52.372;20.672;2023-05-22T12:17:27;100902.81;;;25.20;35.49
38253;BME280;24785;52.372;20.672;2023-05-22T12:27:28;100900.22;;;24.26;36.20
38253;BME280;24785;52.372;20.672;2023-05-22T12:37:32;100887.81;;;24.79;34.00
38253;BME280;24785;52.372;20.672;2023-05-22T12:47:33;100882.53;;;24.55;37.27
38253;BME280;24785;52.372;20.672;2023-05-22T12:57:34;100885.84;;;24.13;38.16
38253;BME280;24785;52.372;20.672;2023-05-22T13:07:35;100872.84;;;23.50;36.22
38253;BME280;24785;52.372;20.672;2023-05-22T13:17:36;100874.53;;;23.27;35.72
38253;BME280;24785;52.372;20.672;2023-05-22T13:27:37;100872.50;;;22.11;39.89
38253;BME280;24785;52.372;20.672;2023-05-22T13:37:38;100862.63;;;22.43;38.59
38253;BME280;24785;52.372;20.672;2023-05-22T13:47:39;100851.09;;;22.61;37.97
38253;BME280;24785;52.372;20.672;2023-05-22T13:57:40;100833.25;;;22.52;38.28
38253;BME280;24785;52.372;20.672;2023-05-22T14:07:41;100830.19;;;22.53;37.04
38253;BME280;24785;52.372;20.672;2023-05-22T14:17:41;100821.00;;;22.34;37.10
38253;BME280;24785;52.372;20.672;2023-05-22T14:27:42;100832.75;;;23.14;40.07
38253;BME280;24785;52.372;20.672;2023-05-22T14:37:44;100830.03;;;23.14;40.32
38253;BME280;24785;52.372;20.672;2023-05-22T14:47:45;100820.03;;;23.06;42.13
38253;BME280;24785;52.372;20.672;2023-05-22T14:57:46;100806.81;;;24.46;37.95
38253;BME280;24785;52.372;20.672;2023-05-22T15:07:47;100803.09;;;25.09;36.34
38253;BME280;24785;52.372;20.672;2023-05-22T15:17:48;100785.47;;;25.10;35.73
38253;BME280;24785;52.372;20.672;2023-05-22T15:27:49;100768.16;;;25.71;31.35
38253;BME280;24785;52.372;20.672;2023-05-22T15:37:50;100764.22;;;25.49;32.73
38253;BME280;24785;52.372;20.672;2023-05-22T15:47:50;100740.03;;;28.30;28.87
38253;BME280;24785;52.372;20.672;2023-05-22T15:57:52;100747.38;;;25.96;34.79
38253;BME280;24785;52.372;20.672;2023-05-22T16:07:53;100757.81;;;23.75;38.08
38253;BME280;24785;52.372;20.672;2023-05-22T16:17:54;100766.25;;;22.42;42.28
38253;BME280;24785;52.372;20.672;2023-05-22T16:27:55;100762.28;;;21.66;44.21
38253;BME280;24785;52.372;20.672;2023-05-22T16:37:56;100757.84;;;21.17;46.84
38253;BME280;24785;52.372;20.672;2023-05-22T16:47:57;100770.72;;;21.28;46.48
38253;BME280;24785;52.372;20.672;2023-05-22T16:57:58;100770.19;;;21.35;46.40
38253;BME280;24785;52.372;20.672;2023-05-22T17:07:59;100779.97;;;21.36;47.74
38253;BME280;24785;52.372;20.672;2023-05-22T17:18:01;100778.31;;;21.23;47.46
38253;BME280;24785;52.372;20.672;2023-05-22T17:28:01;100780.59;;;20.79;50.65
38253;BME280;24785;52.372;20.672;2023-05-22T17:38:02;100778.22;;;20.27;49.91
38253;BME280;24785;52.372;20.672;2023-05-22T17:48:05;100774.53;;;19.64;51.86
38253;BME280;24785;52.372;20.672;2023-05-22T17:58:07;100780.56;;;18.88;54.33
38253;BME280;24785;52.372;20.672;2023-05-22T18:08:07;100786.84;;;18.15;56.12
38253;BME280;24785;52.372;20.672;2023-05-22T18:18:08;100799.38;;;17.40;58.72
38253;BME280;24785;52.372;20.672;2023-05-22T18:28:09;100798.31;;;16.33;63.55
38253;BME280;24785;52.372;20.672;2023-05-22T18:38:10;100798.00;;;15.66;66.47
38253;BME280;24785;52.372;20.672;2023-05-22T18:48:11;100810.13;;;14.98;71.30
38253;BME280;24785;52.372;20.672;2023-05-22T18:58:12;100811.19;;;14.41;74.67
38253;BME280;24785;52.372;20.672;2023-05-22T19:08:13;100814.75;;;13.89;80.47
38253;BME280;24785;52.372;20.672;2023-05-22T19:18:14;100814.59;;;13.17;92.05
38253;BME280;24785;52.372;20.672;2023-05-22T19:28:15;100823.69;;;12.77;97.38
38253;BME280;24785;52.372;20.672;2023-05-22T19:38:16;100813.66;;;12.43;100.00
38253;BME280;24785;52.372;20.672;2023-05-22T19:48:17;100815.41;;;12.09;100.00
38253;BME280;24785;52.372;20.672;2023-05-22T19:58:18;100818.13;;;11.73;100.00
38253;BME280;24785;52.372;20.672;2023-05-22T20:08:20;100817.09;;;11.28;100.00
38253;BME280;24785;52.372;20.672;2023-05-22T20:18:21;100810.91;;;11.02;100.00
38253;BME280;24785;52.372;20.672;2023-05-22T20:28:24;100816.72;;;10.64;100.00
38253;BME280;24785;52.372;20.672;2023-05-22T20:38:25;100813.22;;;10.48;100.00
38253;BME280;24785;52.372;20.672;2023-05-22T20:48:28;100812.22;;;10.12;100.00
38253;BME280;24785;52.372;20.672;2023-05-22T20:58:28;100808.50;;;9.71;100.00
38253;BME280;24785;52.372;20.672;2023-05-22T21:08:29;100804.97;;;9.65;100.00
38253;BME280;24785;52.372;20.672;2023-05-22T21:18:30;100797.16;;;9.54;100.00
38253;BME280;24785;52.372;20.672;2023-05-22T21:28:31;100795.91;;;9.34;100.00
38253;BME280;24785;52.372;20.672;2023-05-22T21:38:32;100800.66;;;8.95;100.00
38253;BME280;24785;52.372;20.672;2023-05-22T21:48:33;100798.16;;;8.83;100.00
38253;BME280;24785;52.372;20.672;2023-05-22T21:58:33;100791.94;;;8.78;100.00
38253;BME280;24785;52.372;20.672;2023-05-22T22:08:34;100801.31;;;8.54;100.00
38253;BME280;24785;52.372;20.672;2023-05-22T22:18:35;100799.53;;;8.37;100.00
38253;BME280;24785;52.372;20.672;2023-05-22T22:28:36;100799.88;;;8.24;100.00
38253;BME280;24785;52.372;20.672;2023-05-22T22:38:37;100798.13;;;8.13;100.00
38253;BME280;24785;52.372;20.672;2023-05-22T22:48:38;100778.97;;;7.99;100.00
38253;BME280;24785;52.372;20.672;2023-05-22T22:58:41;100770.53;;;7.85;100.00
38253;BME280;24785;52.372;20.672;2023-05-22T23:08:41;100766.06;;;7.69;100.00
38253;BME280;24785;52.372;20.672;2023-05-22T23:18:42;100759.16;;;7.35;100.00
38253;BME280;24785;52.372;20.672;2023-05-22T23:28:43;100748.00;;;7.21;100.00
38253;BME280;24785;52.372;20.672;2023-05-22T23:38:44;100745.03;;;7.17;100.00
38253;BME280;24785;52.372;20.672;2023-05-22T23:48:47;100734.94;;;7.19;100.00
38253;BME280;24785;52.372;20.672;2023-05-22T23:58:48;100729.41;;;7.09;100.00
